Time;durP1;ratioP1;P1;durP2;ratioP2;P2;SDS_P1;SDS_P2;PMS_P1;PMS_P2;Temp;Humidity;BMP_temperature;BMP_pressure;BME280_temperature;BME280_humidity;BME280_pressure;Samples;Min_cycle;Max_cycle;Signal;HPM_P1;HPM_P2
2021/07/17 00:02:00;;;;;;;0.95;0.90;;;26.70;50.30;;;;;;5091489;28;20131;-64
2021/07/17 00:04:29;;;;;;;1.00;0.90;;;26.70;50.20;;;;;;5091077;28;20036;-64
2021/07/17 00:06:56;;;;;;;0.88;0.88;;;26.70;50.30;;;;;;5073273;28;20280;-64
2021/07/17 00:09:24;;;;;;;0.60;0.60;;;26.70;50.30;;;;;;5091256;28;20101;-65
2021/07/17 00:11:51;;;;;;;0.98;0.98;;;26.70;50.30;;;;;;5091546;28;20047;-64
2021/07/17 00:14:20;;;;;;;0.80;0.80;;;26.70;50.30;;;;;;5091788;28;20044;-64
2021/07/17 00:16:47;;;;;;;0.90;0.90;;;26.70;50.30;;;;;;5091415;28;20144;-64
2021/07/17 00:19:14;;;;;;;0.88;0.88;;;26.70;50.30;;;;;;5091666;28;20076;-64
2021/07/17 00:21:44;;;;;;;;;;;26.70;50.30;;;;;;5091187;28;20098;-64
2021/07/17 00:24:11;;;;;;;0.60;0.60;;;26.70;50.30;;;;;;5089687;28;19960;-64
2021/07/17 00:26:38;;;;;;;0.70;0.70;;;26.60;50.30;;;;;;5090259;28;20076;-64
2021/07/17 00:29:06;;;;;;;0.80;0.75;;;26.70;50.40;;;;;;5073436;28;20072;-64
2021/07/17 00:31:33;;;;;;;0.70;0.70;;;26.70;50.40;;;;;;5074499;28;20139;-64
2021/07/17 00:34:00;;;;;;;0.80;0.80;;;26.70;50.40;;;;;;5070898;28;20082;-64
2021/07/17 00:36:28;;;;;;;0.70;0.70;;;26.70;50.40;;;;;;5085806;28;20204;-65
2021/07/17 00:38:55;;;;;;;0.60;0.60;;;26.70;50.40;;;;;;5073449;28;20082;-64
2021/07/17 00:41:23;;;;;;;0.95;0.95;;;26.70;50.40;;;;;;5091224;28;20523;-64
2021/07/17 00:43:50;;;;;;;0.93;0.93;;;26.70;50.50;;;;;;5090828;28;20708;-64
2021/07/17 00:46:17;;;;;;;0.75;0.75;;;26.70;50.40;;;;;;5074050;28;20127;-64
2021/07/17 00:48:44;;;;;;;0.73;0.73;;;26.70;50.40;;;;;;5091196;28;20052;-65
2021/07/17 00:51:14;;;;;;;0.90;0.90;;;26.60;50.30;;;;;;5089813;28;20044;-65
2021/07/17 00:53:41;;;;;;;0.80;0.80;;;26.70;50.40;;;;;;5089525;28;20126;-64
2021/07/17 00:56:11;;;;;;;0.70;0.70;;;26.70;50.50;;;;;;5091018;28;20051;-64
2021/07/17 00:58:42;;;;;;;0.50;0.50;;;26.60;50.40;;;;;;5090892;28;20054;-64
2021/07/17 01:01:10;;;;;;;0.70;0.70;;;26.60;50.40;;;;;;5090800;28;20050;-64
2021/07/17 01:03:37;;;;;;;0.85;0.85;;;26.70;50.40;;;;;;5056423;28;20410;-64
2021/07/17 01:06:04;;;;;;;1.05;0.95;;;26.70;50.40;;;;;;5090056;28;20080;-66
2021/07/17 01:08:32;;;;;;;0.77;0.77;;;26.70;50.40;;;;;;5089234;28;20056;-64
2021/07/17 01:10:59;;;;;;;0.85;0.75;;;26.70;50.40;;;;;;5091104;28;20117;-64
2021/07/17 01:13:26;;;;;;;1.00;0.90;;;26.70;50.40;;;;;;5090543;28;20083;-64
2021/07/17 01:15:53;;;;;;;1.27;1.25;;;26.70;50.40;;;;;;5072673;28;20044;-65
2021/07/17 01:18:20;;;;;;;0.80;0.80;;;26.70;50.40;;;;;;5090630;28;20500;-64
2021/07/17 01:20:50;;;;;;;0.80;0.80;;;26.70;50.40;;;;;;5090912;28;20469;-64
2021/07/17 01:23:19;;;;;;;0.88;0.88;;;26.70;50.40;;;;;;5072066;28;20080;-64
2021/07/17 01:25:47;;;;;;;0.82;0.82;;;26.70;50.40;;;;;;5090416;28;20106;-64
2021/07/17 01:28:14;;;;;;;0.80;0.80;;;26.70;50.30;;;;;;5090494;28;20127;-64
2021/07/17 01:30:41;;;;;;;0.63;0.63;;;26.70;50.40;;;;;;5079170;28;20057;-64
2021/07/17 01:33:11;;;;;;;0.77;0.77;;;26.70;50.40;;;;;;5069739;28;20040;-64
2021/07/17 01:35:39;;;;;;;0.80;0.80;;;26.70;50.40;;;;;;5070090;28;20126;-65
2021/07/17 01:38:06;;;;;;;0.90;0.90;;;26.70;50.40;;;;;;5052160;28;20099;-66
2021/07/17 01:40:34;;;;;;;0.80;0.80;;;26.70;50.40;;;;;;5070374;28;20049;-64
2021/07/17 01:43:04;;;;;;;0.77;0.77;;;26.70;50.40;;;;;;5069210;28;20429;-64
2021/07/17 01:45:39;;;;;;;0.82;0.82;;;26.70;50.50;;;;;;5090476;28;20083;-64
2021/07/17 01:48:07;;;;;;;0.65;0.60;;;26.70;50.40;;;;;;5089467;28;20055;-64
2021/07/17 01:50:36;;;;;;;0.60;0.60;;;26.70;50.50;;;;;;5089764;28;20556;-64
2021/07/17 01:53:05;;;;;;;1.58;0.82;;;26.70;50.50;;;;;;5089812;28;20090;-64
2021/07/17 01:55:32;;;;;;;0.70;0.70;;;26.70;50.40;;;;;;5089905;28;20102;-64
2021/07/17 01:58:00;;;;;;;0.80;0.80;;;26.70;50.50;;;;;;5089795;28;20138;-64
2021/07/17 02:00:28;;;;;;;0.82;0.70;;;26.70;50.50;;;;;;5089139;28;20798;-64
2021/07/17 02:02:56;;;;;;;0.82;0.82;;;26.70;50.50;;;;;;5089773;28;20040;-64
2021/07/17 02:05:25;;;;;;;0.77;0.77;;;26.70;50.50;;;;;;5089499;28;20059;-64
2021/07/17 02:07:53;;;;;;;0.57;0.57;;;26.70;50.50;;;;;;5073530;28;20072;-64
2021/07/17 02:10:24;;;;;;;0.80;0.80;;;26.70;50.50;;;;;;5083548;28;20079;-64
2021/07/17 02:13:13;;;;;;;0.90;0.90;;;26.70;50.50;;;;;;5088743;28;20127;-64
2021/07/17 02:15:47;;;;;;;0.60;0.60;;;26.70;50.50;;;;;;5078275;28;20056;-66
2021/07/17 02:18:20;;;;;;;1.05;1.00;;;26.70;50.50;;;;;;5069286;28;20044;-64
2021/07/17 02:20:47;;;;;;;0.80;0.80;;;26.60;50.50;;;;;;5052168;28;20105;-64
2021/07/17 02:23:14;;;;;;;0.70;0.70;;;26.70;50.60;;;;;;5069273;28;20467;-64
2021/07/17 02:25:42;;;;;;;0.90;0.90;;;26.70;50.50;;;;;;5073431;28;20126;-64
2021/07/17 02:28:09;;;;;;;1.08;1.00;;;26.70;50.60;;;;;;5076177;28;20158;-64
2021/07/17 02:30:36;;;;;;;0.85;0.85;;;26.70;50.60;;;;;;5068908;28;20136;-64
2021/07/17 02:33:03;;;;;;;1.05;0.90;;;26.70;50.60;;;;;;5069666;28;20048;-64
2021/07/17 02:35:30;;;;;;;0.80;0.80;;;26.70;50.50;;;;;;5051128;28;20088;-66
2021/07/17 02:37:58;;;;;;;0.73;0.73;;;26.70;50.50;;;;;;5087339;28;20079;-65
2021/07/17 02:40:25;;;;;;;0.95;0.95;;;26.70;50.50;;;;;;5089082;28;20048;-64
2021/07/17 02:42:52;;;;;;;0.73;0.73;;;26.70;50.50;;;;;;5089067;28;20131;-65
2021/07/17 02:45:19;;;;;;;0.77;0.77;;;26.70;50.50;;;;;;5089490;28;20127;-64
2021/07/17 02:47:47;;;;;;;0.50;0.50;;;26.70;50.50;;;;;;5074803;28;20076;-65
2021/07/17 02:50:15;;;;;;;0.70;0.70;;;26.70;50.50;;;;;;5078228;28;20079;-64
2021/07/17 02:52:42;;;;;;;0.80;0.80;;;26.70;50.50;;;;;;5093251;28;20046;-64
2021/07/17 02:55:10;;;;;;;0.68;0.68;;;26.70;50.50;;;;;;5093612;28;20044;-65
2021/07/17 02:57:37;;;;;;;1.00;1.00;;;26.70;51.00;;;;;;5091027;28;20074;-64
2021/07/17 03:00:10;;;;;;;0.80;0.80;;;26.70;50.40;;;;;;5093574;28;20054;-64
2021/07/17 03:02:37;;;;;;;0.80;0.80;;;26.70;50.50;;;;;;5091758;28;20075;-64
2021/07/17 03:05:06;;;;;;;0.75;0.75;;;26.70;50.50;;;;;;5093289;28;20056;-64
2021/07/17 03:07:33;;;;;;;0.80;0.80;;;26.70;50.50;;;;;;5091577;28;20671;-64
2021/07/17 03:10:00;;;;;;;0.85;0.85;;;26.70;50.50;;;;;;5092539;28;20125;-64
2021/07/17 03:12:28;;;;;;;0.95;0.75;;;26.70;50.50;;;;;;5091580;28;20192;-64
2021/07/17 03:14:55;;;;;;;1.13;0.80;;;26.70;50.50;;;;;;5092851;28;20068;-64
2021/07/17 03:17:22;;;;;;;0.80;0.80;;;26.70;50.50;;;;;;5092906;28;20052;-64
2021/07/17 03:19:50;;;;;;;0.70;0.70;;;26.70;50.60;;;;;;5092507;28;20083;-64
2021/07/17 03:22:17;;;;;;;1.85;1.08;;;26.70;50.60;;;;;;5092696;28;20127;-64
2021/07/17 03:24:44;;;;;;;0.65;0.65;;;26.70;51.10;;;;;;5092572;28;20090;-64
2021/07/17 03:27:12;;;;;;;0.80;0.80;;;26.70;50.60;;;;;;5091922;28;20083;-66
2021/07/17 03:29:39;;;;;;;1.27;1.10;;;26.70;50.60;;;;;;5092533;28;20386;-64
2021/07/17 03:32:07;;;;;;;0.82;0.82;;;26.70;50.60;;;;;;5092664;28;20481;-64
2021/07/17 03:34:34;;;;;;;0.93;0.80;;;26.70;50.60;;;;;;5092645;28;20051;-64
2021/07/17 03:37:01;;;;;;;0.90;0.80;;;26.70;50.60;;;;;;5092610;28;20044;-64
2021/07/17 03:39:30;;;;;;;1.05;0.90;;;26.70;50.60;;;;;;5092664;28;20516;-65
2021/07/17 03:41:58;;;;;;;0.70;0.70;;;26.70;50.60;;;;;;5092491;28;20071;-67
2021/07/17 03:44:27;;;;;;;1.00;1.00;;;26.70;50.60;;;;;;5090467;28;20047;-64
2021/07/17 03:46:54;;;;;;;1.10;1.10;;;26.70;50.60;;;;;;5092046;28;20598;-64
2021/07/17 03:49:22;;;;;;;0.88;0.88;;;26.70;50.50;;;;;;5091680;28;20509;-64
2021/07/17 03:51:49;;;;;;;0.80;0.80;;;26.70;50.60;;;;;;5092062;28;20048;-64
2021/07/17 03:54:16;;;;;;;0.90;0.90;;;26.70;50.50;;;;;;5091103;28;20048;-64
2021/07/17 03:56:43;;;;;;;0.85;0.85;;;26.70;50.50;;;;;;5092023;28;20143;-63
2021/07/17 03:59:10;;;;;;;1.92;0.93;;;26.70;50.50;;;;;;5090596;28;20102;-64
2021/07/17 04:01:37;;;;;;;0.88;0.88;;;26.80;50.60;;;;;;5091078;28;20123;-64
2021/07/17 04:04:11;;;;;;;0.80;0.80;;;26.80;50.50;;;;;;5083038;28;20494;-64
2021/07/17 04:06:40;;;;;;;0.70;0.70;;;26.80;50.50;;;;;;5079142;28;20063;-64
2021/07/17 04:09:07;;;;;;;1.75;0.80;;;26.80;50.40;;;;;;5091557;28;20063;-65
2021/07/17 04:11:35;;;;;;;0.85;0.85;;;26.80;50.40;;;;;;5091117;28;20048;-64
2021/07/17 04:14:02;;;;;;;0.80;0.80;;;26.80;50.40;;;;;;5089446;28;20082;-65
2021/07/17 04:16:33;;;;;;;0.70;0.70;;;26.80;50.30;;;;;;5080323;28;20048;-65
2021/07/17 04:19:00;;;;;;;0.77;0.77;;;26.90;50.30;;;;;;5080616;28;20044;-64
2021/07/17 04:21:27;;;;;;;0.73;0.73;;;26.90;50.30;;;;;;5072496;28;20075;-64
2021/07/17 04:23:54;;;;;;;1.00;0.98;;;26.90;50.30;;;;;;5071100;28;20084;-65
2021/07/17 04:26:21;;;;;;;0.80;0.80;;;26.90;50.30;;;;;;5054025;28;20072;-65
2021/07/17 04:28:48;;;;;;;0.65;0.65;;;26.90;50.20;;;;;;5087481;28;20566;-65
2021/07/17 04:31:15;;;;;;;1.02;1.02;;;26.90;50.20;;;;;;5091543;28;20538;-65
2021/07/17 04:33:44;;;;;;;0.88;0.88;;;26.90;50.10;;;;;;5090272;28;20131;-65
2021/07/17 04:36:11;;;;;;;0.85;0.85;;;26.90;50.10;;;;;;5091558;28;20634;-64
2021/07/17 04:38:38;;;;;;;0.90;0.90;;;27.00;50.20;;;;;;5091072;28;20083;-65
2021/07/17 04:41:06;;;;;;;0.70;0.70;;;27.00;50.10;;;;;;5091344;28;20074;-65
2021/07/17 04:43:33;;;;;;;1.13;0.90;;;27.00;50.10;;;;;;5091500;28;20303;-65
2021/07/17 04:46:01;;;;;;;0.80;0.80;;;27.00;50.10;;;;;;5091303;28;20152;-66
2021/07/17 04:48:28;;;;;;;0.80;0.80;;;27.00;50.10;;;;;;5071958;28;20040;-65
2021/07/17 04:50:55;;;;;;;1.00;1.00;;;27.00;50.00;;;;;;5090135;28;20068;-65
2021/07/17 04:53:22;;;;;;;1.00;0.90;;;27.00;50.00;;;;;;5073504;28;20079;-64
2021/07/17 04:55:49;;;;;;;0.65;0.63;;;27.00;50.00;;;;;;5089469;28;20143;-65
2021/07/17 04:58:17;;;;;;;0.90;0.88;;;27.00;50.00;;;;;;5090967;28;20462;-64
2021/07/17 05:00:44;;;;;;;0.85;0.85;;;27.00;50.00;;;;;;5090221;28;20169;-64
2021/07/17 05:03:11;;;;;;;0.88;0.88;;;27.00;50.00;;;;;;5089450;28;20047;-64
2021/07/17 05:05:40;;;;;;;0.88;0.88;;;27.10;50.00;;;;;;5070742;28;20139;-64
2021/07/17 05:08:07;;;;;;;0.98;0.98;;;27.00;50.00;;;;;;5069725;28;20157;-65
2021/07/17 05:10:35;;;;;;;2.65;1.40;;;27.00;50.40;;;;;;5077933;28;20048;-64
2021/07/17 05:13:16;;;;;;;1.38;1.10;;;26.90;50.70;;;;;;5090252;28;20067;-65
2021/07/17 05:15:43;;;;;;;1.30;1.20;;;26.80;51.10;;;;;;5090842;28;20052;-65
2021/07/17 05:18:12;;;;;;;1.15;1.10;;;26.60;51.50;;;;;;5090748;28;20154;-64
2021/07/17 05:20:40;;;;;;;2.20;1.60;;;26.50;51.90;;;;;;5090561;28;20489;-64
2021/07/17 05:23:08;;;;;;;1.45;1.40;;;26.30;52.40;;;;;;5090642;28;20127;-63
2021/07/17 05:25:36;;;;;;;1.60;1.50;;;26.10;53.00;;;;;;5086244;28;20188;-65
2021/07/17 05:28:04;;;;;;;1.52;1.42;;;25.90;53.50;;;;;;5079794;28;20489;-64
2021/07/17 05:30:32;;;;;;;1.70;1.60;;;25.60;54.30;;;;;;5090662;28;20071;-64
2021/07/17 05:33:00;;;;;;;1.70;1.60;;;25.40;55.10;;;;;;5071589;28;20075;-65
2021/07/17 05:35:28;;;;;;;1.80;1.70;;;25.20;55.90;;;;;;5069869;28;20067;-65
2021/07/17 05:37:56;;;;;;;1.90;1.80;;;25.00;56.50;;;;;;5081749;28;20139;-64
2021/07/17 05:40:24;;;;;;;2.00;1.90;;;24.80;57.00;;;;;;5090466;28;20505;-65
2021/07/17 05:42:51;;;;;;;2.22;1.67;;;24.70;57.60;;;;;;5065097;28;20123;-65
2021/07/17 05:45:19;;;;;;;2.03;1.92;;;24.60;57.90;;;;;;5060117;28;20090;-65
2021/07/17 05:47:46;;;;;;;2.33;2.13;;;24.50;58.30;;;;;;5069987;28;20110;-64
2021/07/17 05:50:14;;;;;;;2.30;2.15;;;24.40;58.50;;;;;;5069632;28;20048;-64
2021/07/17 05:52:41;;;;;;;2.05;1.95;;;24.40;58.90;;;;;;5069876;28;20048;-64
2021/07/17 05:55:10;;;;;;;2.05;1.95;;;24.30;59.00;;;;;;5070251;28;20044;-65
2021/07/17 05:57:37;;;;;;;2.30;2.10;;;24.30;59.30;;;;;;5069677;28;20087;-64
2021/07/17 06:00:06;;;;;;;2.33;2.22;;;24.20;59.60;;;;;;5070398;28;20481;-64
2021/07/17 06:02:33;;;;;;;2.60;2.40;;;24.10;59.70;;;;;;5088791;28;20127;-65
2021/07/17 06:05:01;;;;;;;2.95;2.72;;;24.10;59.90;;;;;;5089807;28;20048;-65
2021/07/17 06:07:28;;;;;;;2.22;2.00;;;24.10;60.10;;;;;;5055182;28;20142;-65
2021/07/17 06:09:55;;;;;;;3.28;2.55;;;24.00;60.30;;;;;;5089717;28;20131;-64
2021/07/17 06:12:23;;;;;;;3.38;2.67;;;24.00;60.50;;;;;;5090102;28;20123;-64
2021/07/17 06:14:50;;;;;;;2.42;2.22;;;24.00;60.70;;;;;;5089197;28;20616;-64
2021/07/17 06:17:17;;;;;;;2.58;2.38;;;23.90;60.80;;;;;;5071892;28;20050;-64
2021/07/17 06:19:44;;;;;;;2.72;2.50;;;23.90;61.00;;;;;;5089206;28;20051;-64
2021/07/17 06:22:12;;;;;;;2.65;2.45;;;23.90;61.10;;;;;;5087908;28;20068;-66
2021/07/17 06:24:40;;;;;;;2.53;2.33;;;23.90;61.30;;;;;;5071604;28;20131;-64
2021/07/17 06:27:08;;;;;;;3.00;2.80;;;23.80;61.40;;;;;;5088765;28;20071;-64
2021/07/17 06:29:35;;;;;;;2.63;2.42;;;23.80;61.50;;;;;;5088825;28;20678;-65
2021/07/17 06:32:04;;;;;;;2.55;2.35;;;23.90;61.60;;;;;;5088319;28;20050;-64
2021/07/17 06:34:32;;;;;;;3.15;2.90;;;23.90;61.70;;;;;;5089415;28;20048;-64
2021/07/17 06:37:00;;;;;;;2.80;2.60;;;23.90;61.70;;;;;;5084883;28;20044;-64
2021/07/17 06:39:28;;;;;;;2.72;2.53;;;23.90;61.80;;;;;;5075648;28;20105;-64
2021/07/17 06:41:55;;;;;;;2.95;2.65;;;23.90;61.80;;;;;;5071420;28;20076;-65
2021/07/17 06:44:23;;;;;;;2.60;2.40;;;23.90;61.90;;;;;;5088848;28;20036;-66
2021/07/17 06:46:50;;;;;;;2.78;2.50;;;23.90;62.10;;;;;;5089482;28;20074;-64
2021/07/17 06:49:17;;;;;;;2.67;2.47;;;23.80;62.10;;;;;;5089128;28;20552;-64
2021/07/17 06:51:44;;;;;;;3.28;3.00;;;23.80;62.20;;;;;;5089040;28;20673;-64
2021/07/17 06:54:11;;;;;;;2.55;2.38;;;23.80;62.20;;;;;;5088968;28;20084;-64
2021/07/17 06:56:38;;;;;;;2.95;2.47;;;23.90;62.30;;;;;;5088843;28;20056;-64
2021/07/17 06:59:05;;;;;;;2.47;2.33;;;23.90;62.30;;;;;;5071835;28;20455;-64
2021/07/17 07:01:33;;;;;;;3.10;2.75;;;23.90;62.30;;;;;;5087074;28;20131;-64
2021/07/17 07:04:00;;;;;;;3.40;3.10;;;23.90;62.20;;;;;;5088543;28;20089;-66
2021/07/17 07:06:28;;;;;;;3.30;3.00;;;23.90;62.20;;;;;;5085308;28;20433;-64
2021/07/17 07:08:55;;;;;;;2.80;2.60;;;23.90;62.20;;;;;;5069122;28;20060;-65
2021/07/17 07:11:22;;;;;;;2.85;2.65;;;24.00;62.30;;;;;;5069012;28;20091;-64
2021/07/17 07:13:50;;;;;;;2.90;2.70;;;23.90;62.40;;;;;;5068150;28;20036;-65
2021/07/17 07:16:17;;;;;;;3.10;2.90;;;23.90;62.50;;;;;;5069112;28;20044;-64
2021/07/17 07:18:44;;;;;;;3.25;2.95;;;23.90;62.70;;;;;;5069268;28;20091;-65
2021/07/17 07:21:11;;;;;;;3.40;2.92;;;23.90;62.80;;;;;;5068340;28;20094;-64
2021/07/17 07:23:40;;;;;;;3.58;3.10;;;23.90;62.90;;;;;;5070994;28;20143;-65
2021/07/17 07:26:07;;;;;;;2.97;2.78;;;23.90;63.00;;;;;;5054595;28;20137;-65
2021/07/17 07:28:34;;;;;;;3.08;2.85;;;23.80;63.10;;;;;;5071782;28;20052;-64
2021/07/17 07:31:02;;;;;;;3.33;3.03;;;23.80;63.20;;;;;;5071422;28;20071;-64
2021/07/17 07:33:29;;;;;;;2.88;2.67;;;23.80;63.20;;;;;;5073374;28;20044;-64
2021/07/17 07:35:56;;;;;;;3.85;2.80;;;23.80;63.40;;;;;;5075113;28;20063;-64
2021/07/17 07:38:23;;;;;;;3.55;3.25;;;23.80;63.50;;;;;;5087698;28;20054;-64
2021/07/17 07:40:50;;;;;;;3.10;2.90;;;23.80;63.70;;;;;;5089681;28;20076;-62
2021/07/17 07:43:17;;;;;;;3.70;3.40;;;23.80;63.70;;;;;;5090407;28;20396;-64
2021/07/17 07:45:44;;;;;;;3.97;3.67;;;23.80;63.70;;;;;;5090434;28;20370;-64
2021/07/17 07:48:13;;;;;;;3.60;3.30;;;23.80;63.70;;;;;;5089308;28;20043;-64
2021/07/17 07:50:40;;;;;;;3.03;2.83;;;23.80;63.70;;;;;;5089987;28;20048;-64
2021/07/17 07:53:08;;;;;;;4.10;3.17;;;23.80;63.70;;;;;;5090791;28;20144;-64
2021/07/17 07:55:35;;;;;;;3.40;3.15;;;23.80;63.70;;;;;;5054014;28;20131;-64
2021/07/17 07:58:02;;;;;;;3.15;2.85;;;23.80;63.80;;;;;;5079494;28;20094;-64
2021/07/17 08:00:30;;;;;;;3.33;3.05;;;23.80;63.80;;;;;;5070310;28;20421;-64
2021/07/17 08:03:01;;;;;;;3.20;2.90;;;23.80;63.80;;;;;;5070305;28;20486;-64
2021/07/17 08:05:29;;;;;;;3.50;3.25;;;23.80;63.80;;;;;;5090364;28;20104;-64
2021/07/17 08:07:57;;;;;;;3.15;2.85;;;23.80;63.80;;;;;;5089523;28;20040;-64
2021/07/17 08:10:24;;;;;;;3.53;3.30;;;23.90;63.80;;;;;;5089437;28;20083;-64
2021/07/17 08:12:52;;;;;;;3.53;3.22;;;23.90;63.80;;;;;;5072377;28;20669;-65
2021/07/17 08:15:19;;;;;;;3.22;2.92;;;23.90;63.80;;;;;;5090077;28;20131;-64
2021/07/17 08:17:46;;;;;;;4.85;3.25;;;23.90;63.80;;;;;;5090656;28;20076;-64
2021/07/17 08:20:16;;;;;;;3.85;3.47;;;23.90;63.80;;;;;;5089100;28;20181;-64
2021/07/17 08:22:45;;;;;;;3.28;2.97;;;23.90;63.80;;;;;;5090415;28;20047;-64
2021/07/17 08:25:14;;;;;;;3.53;3.22;;;23.90;63.80;;;;;;5089121;28;20637;-64
2021/07/17 08:27:41;;;;;;;3.20;3.00;;;23.90;63.70;;;;;;5089243;28;20059;-64
2021/07/17 08:30:11;;;;;;;3.80;3.40;;;24.00;63.70;;;;;;5072718;28;20054;-64
2021/07/17 08:32:54;;;;;;;3.60;3.30;;;23.90;63.70;;;;;;5089533;28;20048;-64
2021/07/17 08:35:22;;;;;;;4.20;3.80;;;24.00;63.70;;;;;;5089436;28;20044;-64
2021/07/17 08:37:50;;;;;;;4.78;3.58;;;24.00;63.70;;;;;;5078703;28;20124;-64
2021/07/17 08:40:17;;;;;;;3.85;3.55;;;24.10;63.60;;;;;;5052635;28;20076;-64
2021/07/17 08:42:47;;;;;;;3.72;3.42;;;24.10;63.50;;;;;;5069429;28;20143;-64
2021/07/17 08:45:14;;;;;;;3.42;3.22;;;24.10;63.50;;;;;;5069008;28;20111;-64
2021/07/17 08:47:42;;;;;;;3.33;2.92;;;24.10;63.50;;;;;;5082670;28;20040;-64
2021/07/17 08:50:12;;;;;;;4.22;3.83;;;24.10;63.50;;;;;;5089968;28;20055;-64
2021/07/17 08:52:42;;;;;;;3.13;2.92;;;24.10;63.40;;;;;;5089402;28;20127;-64
2021/07/17 08:55:11;;;;;;;3.60;3.30;;;24.10;63.50;;;;;;5089780;28;20127;-64
2021/07/17 08:57:41;;;;;;;3.72;3.42;;;24.10;63.50;;;;;;5089674;28;20109;-64
2021/07/17 09:00:16;;;;;;;4.82;3.30;;;24.10;63.40;;;;;;5088987;28;20071;-65
2021/07/17 09:02:55;;;;;;;3.05;2.85;;;24.10;63.40;;;;;;5087937;28;20054;-64
2021/07/17 09:05:26;;;;;;;3.38;3.15;;;24.10;63.40;;;;;;5072722;28;20047;-64
2021/07/17 09:07:55;;;;;;;3.40;3.10;;;24.10;63.40;;;;;;5089555;28;20353;-64
2021/07/17 09:10:36;;;;;;;3.60;3.30;;;24.20;63.40;;;;;;5089870;28;20048;-64
2021/07/17 09:13:22;;;;;;;3.50;3.20;;;24.20;63.50;;;;;;5071234;28;20762;-64
2021/07/17 09:16:09;;;;;;;3.40;3.10;;;24.20;63.50;;;;;;5089309;28;20127;-64
2021/07/17 09:18:49;;;;;;;3.80;3.50;;;24.20;63.50;;;;;;5088476;28;20055;-65
2021/07/17 09:21:26;;;;;;;3.90;3.50;;;24.20;63.40;;;;;;5084245;28;20064;-64
2021/07/17 09:24:01;;;;;;;3.20;2.90;;;24.20;63.40;;;;;;5085296;28;20509;-64
2021/07/17 09:26:34;;;;;;;3.67;3.38;;;24.20;63.40;;;;;;5088741;28;20134;-64
2021/07/17 09:29:11;;;;;;;3.60;3.30;;;24.20;63.40;;;;;;5089587;28;20044;-64
2021/07/17 09:31:54;;;;;;;3.53;3.22;;;24.20;63.50;;;;;;5088814;28;20127;-64
2021/07/17 09:34:27;;;;;;;4.32;3.22;;;24.20;63.50;;;;;;5088933;28;20409;-64
2021/07/17 09:37:01;;;;;;;3.88;3.38;;;24.20;63.50;;;;;;5087395;28;20102;-65
2021/07/17 09:39:35;;;;;;;3.30;3.00;;;24.20;63.50;;;;;;5088692;28;20088;-64
2021/07/17 09:42:05;;;;;;;3.88;3.58;;;24.20;63.60;;;;;;5068572;28;20048;-64
2021/07/17 09:44:34;;;;;;;3.67;3.38;;;24.20;63.60;;;;;;5068381;28;20054;-64
2021/07/17 09:47:13;;;;;;;3.40;3.20;;;24.20;63.60;;;;;;5068376;28;20051;-64
2021/07/17 09:49:40;;;;;;;3.97;2.63;;;24.30;63.50;;;;;;5068870;28;20135;-66
2021/07/17 09:52:12;;;;;;;3.03;2.72;;;24.30;63.40;;;;;;5050937;28;20148;-64
2021/07/17 09:55:02;;;;;;;3.53;2.90;;;24.40;63.40;;;;;;5068656;28;20040;-66
2021/07/17 09:57:30;;;;;;;3.83;3.13;;;24.40;63.30;;;;;;5050227;28;20101;-66
2021/07/17 10:00:09;;;;;;;3.13;2.80;;;24.40;63.20;;;;;;5068378;28;20511;-64
2021/07/17 10:02:52;;;;;;;3.35;2.90;;;24.40;63.20;;;;;;5064040;28;20044;-64
2021/07/17 10:05:38;;;;;;;3.22;2.92;;;24.40;63.30;;;;;;5088594;28;20052;-64
2021/07/17 10:08:15;;;;;;;3.88;3.50;;;24.40;63.30;;;;;;5086801;28;20516;-64
2021/07/17 10:10:46;;;;;;;3.53;3.22;;;24.40;63.30;;;;;;5088498;28;20667;-64
2021/07/17 10:13:13;;;;;;;2.92;2.72;;;24.40;63.30;;;;;;5086716;28;20502;-64
2021/07/17 10:15:40;;;;;;;3.38;3.10;;;24.40;63.30;;;;;;5070275;28;20081;-64
2021/07/17 10:18:24;;;;;;;3.17;2.97;;;24.40;63.40;;;;;;5071736;28;20080;-64
2021/07/17 10:20:53;;;;;;;2.70;2.50;;;24.40;63.40;;;;;;5068224;28;20040;-64
2021/07/17 10:23:21;;;;;;;3.53;3.22;;;24.40;63.50;;;;;;5068181;28;20135;-64
2021/07/17 10:25:49;;;;;;;3.63;3.33;;;24.40;63.60;;;;;;5067735;28;20140;-64
2021/07/17 10:28:16;;;;;;;3.22;2.92;;;24.40;63.60;;;;;;5084382;28;20052;-63
2021/07/17 10:30:44;;;;;;;2.97;2.78;;;24.40;63.60;;;;;;5087924;28;20075;-64
2021/07/17 10:33:12;;;;;;;3.25;2.95;;;24.40;63.60;;;;;;5087665;28;20071;-64
2021/07/17 10:35:39;;;;;;;3.67;3.38;;;24.40;63.70;;;;;;5088273;28;20491;-64
2021/07/17 10:38:11;;;;;;;2.70;2.50;;;24.40;63.70;;;;;;5088404;28;20127;-63
2021/07/17 10:40:39;;;;;;;3.05;2.75;;;24.40;63.70;;;;;;5086402;28;20446;-64
2021/07/17 10:43:08;;;;;;;3.13;2.83;;;24.40;63.70;;;;;;5076874;28;20477;-64
2021/07/17 10:45:38;;;;;;;3.40;3.10;;;24.40;63.70;;;;;;5068650;28;20052;-66
2021/07/17 10:48:27;;;;;;;3.40;2.97;;;24.40;63.80;;;;;;5073119;28;20106;-64
2021/07/17 10:50:59;;;;;;;3.17;2.88;;;24.40;63.80;;;;;;5067852;28;20124;-64
2021/07/17 10:53:48;;;;;;;2.72;2.53;;;24.40;63.80;;;;;;5077112;28;20105;-64
2021/07/17 10:56:39;;;;;;;3.45;2.75;;;24.40;63.80;;;;;;5088622;28;20060;-64
2021/07/17 10:59:40;;;;;;;3.13;2.83;;;24.40;63.90;;;;;;5083221;28;20117;-64
2021/07/17 11:02:09;;;;;;;2.80;2.60;;;24.50;63.90;;;;;;5055114;28;20139;-64
2021/07/17 11:04:50;;;;;;;3.28;2.80;;;24.50;63.80;;;;;;5067202;28;20127;-64
2021/07/17 11:07:36;;;;;;;2.38;2.22;;;24.50;63.70;;;;;;5068912;28;20654;-64
2021/07/17 11:10:12;;;;;;;2.65;2.45;;;24.60;63.60;;;;;;5071713;28;20131;-64
2021/07/17 11:12:49;;;;;;;2.90;2.70;;;24.60;63.40;;;;;;5071384;28;20049;-64
2021/07/17 11:15:37;;;;;;;2.95;2.75;;;24.70;63.30;;;;;;5053983;28;20131;-64
2021/07/17 11:18:18;;;;;;;3.00;2.70;;;24.70;63.20;;;;;;5071625;28;20048;-64
2021/07/17 11:20:46;;;;;;;2.75;2.55;;;24.70;63.20;;;;;;5073146;28;20135;-64
2021/07/17 11:23:16;;;;;;;2.72;2.53;;;24.70;63.80;;;;;;5092483;28;20088;-64
2021/07/17 11:29:07;;;;;;;3.05;2.75;;;24.70;63.30;;;;;;5091343;28;20014;-64
2021/07/17 11:31:44;;;;;;;2.80;2.60;;;24.70;63.30;;;;;;5091490;28;20048;-64
2021/07/17 11:34:32;;;;;;;3.00;2.80;;;24.70;63.30;;;;;;5073231;28;20076;-63
2021/07/17 11:37:00;;;;;;;2.85;2.65;;;24.70;63.40;;;;;;5057071;28;20056;-64
2021/07/17 11:39:29;;;;;;;3.05;2.55;;;24.70;63.40;;;;;;5070763;28;20052;-64
2021/07/17 11:41:59;;;;;;;2.95;2.75;;;24.60;63.50;;;;;;5071825;28;20537;-64
2021/07/17 11:44:28;;;;;;;4.05;2.60;;;24.60;63.50;;;;;;5077851;28;20086;-64
2021/07/17 11:47:08;;;;;;;2.97;2.78;;;24.60;63.60;;;;;;5091113;28;20113;-64
2021/07/17 11:49:37;;;;;;;;;;;24.60;63.60;;;;;;5091270;28;20040;-64
2021/07/17 11:52:08;;;;;;;2.50;2.28;;;24.50;63.70;;;;;;5090440;28;20011;-64
2021/07/17 11:54:38;;;;;;;4.10;2.63;;;24.50;63.90;;;;;;5091245;28;20135;-64
2021/07/17 11:57:13;;;;;;;3.25;2.97;;;24.50;64.00;;;;;;5091224;28;20052;-64
2021/07/17 11:59:46;;;;;;;2.78;2.58;;;24.40;64.00;;;;;;5090327;28;20127;-64
2021/07/17 12:02:16;;;;;;;2.83;2.63;;;24.40;64.10;;;;;;5090017;28;20044;-64
2021/07/17 12:04:52;;;;;;;3.00;2.75;;;24.40;64.20;;;;;;5090081;28;20530;-64
2021/07/17 12:07:24;;;;;;;3.45;3.15;;;24.40;64.20;;;;;;5091340;28;20072;-64
2021/07/17 12:09:57;;;;;;;2.75;2.58;;;24.50;64.10;;;;;;5089553;28;20078;-64
2021/07/17 12:12:30;;;;;;;3.55;3.00;;;24.50;64.10;;;;;;5089218;28;20044;-64
2021/07/17 12:15:08;;;;;;;2.70;2.50;;;24.50;64.00;;;;;;5090128;28;20083;-64
2021/07/17 12:17:48;;;;;;;2.88;2.60;;;24.50;64.10;;;;;;5090966;28;20097;-64
2021/07/17 12:20:24;;;;;;;3.17;2.97;;;24.50;64.10;;;;;;5071701;28;20082;-64
2021/07/17 12:23:11;;;;;;;3.38;2.90;;;24.40;64.20;;;;;;5072600;28;20146;-66
2021/07/17 12:25:44;;;;;;;3.28;3.03;;;24.40;64.40;;;;;;5089826;28;20485;-64
2021/07/17 12:28:22;;;;;;;2.92;2.72;;;24.40;64.30;;;;;;5089040;28;20564;-64
2021/07/17 12:30:56;;;;;;;3.35;3.05;;;24.40;64.30;;;;;;5089380;28;20052;-64
2021/07/17 12:33:29;;;;;;;3.22;2.92;;;24.50;64.20;;;;;;5089146;28;20055;-64
2021/07/17 12:36:06;;;;;;;3.17;2.90;;;24.50;64.10;;;;;;5081892;28;20578;-64
2021/07/17 12:38:49;;;;;;;2.85;2.65;;;24.50;64.00;;;;;;5052495;28;20145;-64
2021/07/17 12:41:25;;;;;;;3.45;2.95;;;24.50;64.00;;;;;;5073688;28;20103;-64
2021/07/17 12:44:04;;;;;;;3.72;3.47;;;24.60;63.90;;;;;;5075347;28;20105;-65
2021/07/17 12:46:35;;;;;;;2.95;2.75;;;24.60;63.80;;;;;;5070914;28;20172;-64
2021/07/17 12:49:12;;;;;;;2.95;2.67;;;24.60;63.80;;;;;;5072313;28;20051;-64
2021/07/17 12:51:43;;;;;;;3.00;2.80;;;24.70;63.90;;;;;;5090006;28;20044;-64
2021/07/17 12:54:13;;;;;;;3.95;3.63;;;24.60;63.90;;;;;;5071718;28;20036;-64
2021/07/17 12:56:42;;;;;;;;;;;24.60;64.10;;;;;;5089290;28;20056;-64
2021/07/17 12:59:13;;;;;;;3.33;3.03;;;24.60;64.20;;;;;;5081317;28;19986;-64
2021/07/17 13:01:56;;;;;;;3.67;3.38;;;24.60;64.20;;;;;;5089672;28;20425;-64
2021/07/17 13:04:27;;;;;;;2.95;2.75;;;24.60;64.40;;;;;;5089211;28;20044;-64
2021/07/17 13:07:06;;;;;;;3.53;3.22;;;24.60;64.40;;;;;;5089300;28;20481;-64